Time;durP1;ratioP1;P1;durP2;ratioP2;P2;SDS_P1;SDS_P2;PMS_P1;PMS_P2;Temp;Humidity;BMP_temperature;BMP_pressure;BME280_temperature;BME280_humidity;BME280_pressure;Samples;Min_cycle;Max_cycle;Signal;HPM_P1;HPM_P2
2022/11/14 00:01:25;;;;;;;17.73;12.90;;;;;;;2.21;100.00;98159.81;5080107;28;20247;-70
2022/11/14 00:03:53;;;;;;;19.93;13.30;;;;;;;2.26;100.00;98165.72;5080080;28;20375;-71
2022/11/14 00:06:20;;;;;;;18.03;12.80;;;;;;;2.30;100.00;98167.34;5080006;28;20250;-71
2022/11/14 00:08:47;;;;;;;17.83;12.40;;;;;;;2.29;100.00;98164.78;5079797;28;20350;-71
2022/11/14 00:11:13;;;;;;;21.47;13.90;;;;;;;2.24;100.00;98157.13;5079861;28;20251;-71
2022/11/14 00:13:40;;;;;;;18.43;12.87;;;;;;;2.24;100.00;98167.56;5078011;28;20622;-71
2022/11/14 00:16:07;;;;;;;18.60;13.00;;;;;;;2.25;100.00;98163.16;5079939;28;20251;-70
2022/11/14 00:18:33;;;;;;;18.43;13.70;;;;;;;2.25;100.00;98164.03;5079781;28;20251;-70
2022/11/14 00:21:01;;;;;;;17.20;12.27;;;;;;;2.26;100.00;98155.31;5080041;28;20262;-70
2022/11/14 00:23:28;;;;;;;19.23;13.23;;;;;;;2.21;100.00;98161.59;5079802;28;20301;-71
2022/11/14 00:25:54;;;;;;;18.50;12.30;;;;;;;2.20;100.00;98159.91;5079919;28;20255;-71
2022/11/14 00:28:21;;;;;;;18.63;12.17;;;;;;;2.26;100.00;98170.94;5079628;28;20251;-71
2022/11/14 00:30:48;;;;;;;17.70;11.37;;;;;;;2.29;100.00;98159.56;5079624;28;20262;-71
2022/11/14 00:33:15;;;;;;;16.77;11.30;;;;;;;2.29;100.00;98164.78;5079502;28;20271;-71
2022/11/14 00:35:49;;;;;;;17.70;11.77;;;;;;;2.27;100.00;98164.00;5079725;28;20261;-71
2022/11/14 00:38:17;;;;;;;18.17;11.73;;;;;;;2.21;100.00;98162.44;5079430;28;20568;-71
2022/11/14 00:40:44;;;;;;;18.47;12.57;;;;;;;2.24;100.00;98157.13;5077940;28;20262;-71
2022/11/14 00:43:10;;;;;;;17.50;12.03;;;;;;;2.30;100.00;98154.28;5079206;28;20290;-72
2022/11/14 00:45:37;;;;;;;19.43;13.13;;;;;;;2.32;100.00;98155.09;5079525;28;20246;-71
2022/11/14 00:48:03;;;;;;;18.07;12.37;;;;;;;2.31;100.00;98142.94;5078229;28;20299;-71
2022/11/14 00:50:30;;;;;;;18.13;12.53;;;;;;;2.26;100.00;98150.09;5079188;28;20272;-71
2022/11/14 00:52:57;;;;;;;17.57;11.87;;;;;;;2.21;100.00;98154.63;5079485;28;20278;-71
2022/11/14 00:55:25;;;;;;;17.30;11.60;;;;;;;2.16;100.00;98146.13;5079151;28;20359;-71
2022/11/14 00:57:51;;;;;;;20.13;12.93;;;;;;;2.15;100.00;98146.19;5079126;28;20589;-71
2022/11/14 01:00:18;;;;;;;19.37;13.33;;;;;;;2.13;100.00;98146.22;5079036;28;20254;-71
2022/11/14 01:02:45;;;;;;;23.73;16.37;;;;;;;2.09;100.00;98135.97;5079130;28;20588;-71
2022/11/14 01:05:11;;;;;;;19.63;13.60;;;;;;;2.07;100.00;98133.41;5077171;28;20265;-71
2022/11/14 01:07:38;;;;;;;21.47;13.33;;;;;;;2.17;100.00;98139.13;5078892;28;20293;-71
2022/11/14 01:10:06;;;;;;;19.90;13.93;;;;;;;2.15;100.00;98131.38;5079036;28;20255;-71
2022/11/14 01:12:35;;;;;;;19.97;13.43;;;;;;;2.17;100.00;98133.94;5078741;28;20328;-71
2022/11/14 01:15:02;;;;;;;21.53;14.20;;;;;;;2.07;100.00;98132.53;5078758;28;20254;-71
2022/11/14 01:17:29;;;;;;;20.13;13.60;;;;;;;2.05;100.00;98132.63;5078734;28;20634;-71
2022/11/14 01:19:55;;;;;;;21.47;14.27;;;;;;;2.03;100.00;98131.81;5078673;28;20245;-71
2022/11/14 01:22:22;;;;;;;19.50;13.60;;;;;;;2.06;100.00;98130.84;5078905;28;20247;-71
2022/11/14 01:24:48;;;;;;;21.23;13.53;;;;;;;2.10;100.00;98132.44;5078579;28;20255;-71
2022/11/14 01:27:15;;;;;;;17.43;12.23;;;;;;;2.03;100.00;98131.81;5078455;28;20255;-71
2022/11/14 01:29:43;;;;;;;19.17;13.43;;;;;;;2.03;100.00;98125.75;5078548;28;20262;-71
2022/11/14 01:32:10;;;;;;;18.30;13.00;;;;;;;1.93;100.00;98120.03;5076625;28;20650;-70
2022/11/14 01:34:36;;;;;;;18.87;12.27;;;;;;;1.92;100.00;98118.31;5078387;28;20255;-71
2022/11/14 01:37:03;;;;;;;18.93;12.30;;;;;;;1.86;100.00;98118.53;5078336;28;20627;-70
2022/11/14 01:39:30;;;;;;;20.17;14.43;;;;;;;1.81;100.00;98120.44;5078204;28;20255;-71
2022/11/14 01:41:57;;;;;;;18.37;13.00;;;;;;;1.73;100.00;98122.44;5078009;28;20265;-70
2022/11/14 01:44:46;;;;;;;17.20;12.13;;;;;;;1.71;100.00;98116.44;5078048;28;20658;-70
2022/11/14 01:47:16;;;;;;;14.43;10.37;;;;;;;1.62;100.00;98113.31;5078043;28;20559;-70
2022/11/14 01:49:47;;;;;;;17.90;12.30;;;;;;;1.48;100.00;98111.16;5077960;28;20273;-72
2022/11/14 01:52:17;;;;;;;18.60;12.10;;;;;;;1.41;100.00;98106.25;5077962;28;20262;-71
2022/11/14 01:54:48;;;;;;;19.03;12.17;;;;;;;1.39;100.00;98102.81;5077810;28;20254;-71
2022/11/14 01:57:20;;;;;;;20.80;13.20;;;;;;;1.33;100.00;98100.41;5076245;28;20243;-71
2022/11/14 01:59:51;;;;;;;16.70;12.23;;;;;;;1.36;100.00;98095.97;5077655;28;20257;-71
2022/11/14 02:02:20;;;;;;;19.47;12.93;;;;;;;1.34;100.00;98092.56;5077829;28;20587;-71
2022/11/14 02:04:51;;;;;;;19.03;12.67;;;;;;;1.34;100.00;98087.34;5077661;28;20298;-71
2022/11/14 02:07:18;;;;;;;18.00;12.50;;;;;;;1.34;100.00;98097.78;5077670;28;20665;-71
2022/11/14 02:09:46;;;;;;;17.77;11.73;;;;;;;1.31;100.00;98087.47;5077667;28;20276;-70
2022/11/14 02:12:16;;;;;;;20.37;13.83;;;;;;;1.33;100.00;98080.47;5077534;28;20246;-71
2022/11/14 02:14:45;;;;;;;23.70;14.63;;;;;;;1.34;100.00;98082.16;5077651;28;20330;-70
2022/11/14 02:17:14;;;;;;;21.73;14.83;;;;;;;1.41;100.00;98086.25;5077724;28;20254;-70
2022/11/14 02:19:42;;;;;;;22.80;15.47;;;;;;;1.42;100.00;98087.94;5077648;28;20285;-70
2022/11/14 02:22:10;;;;;;;24.57;16.50;;;;;;;1.41;100.00;98088.84;5075667;28;20254;-70
2022/11/14 02:24:37;;;;;;;23.67;15.37;;;;;;;1.42;100.00;98094.91;5077501;28;20247;-71
2022/11/14 02:27:05;;;;;;;24.97;16.67;;;;;;;1.41;100.00;98088.84;5077646;28;20255;-71
2022/11/14 02:29:33;;;;;;;23.83;15.73;;;;;;;1.42;100.00;98087.94;5077521;28;20254;-71
2022/11/14 02:32:00;;;;;;;20.47;15.20;;;;;;;1.45;100.00;98089.59;5077259;28;20255;-70
2022/11/14 02:34:27;;;;;;;23.10;15.33;;;;;;;1.46;100.00;98097.34;5077183;28;20711;-70
2022/11/14 02:36:54;;;;;;;20.77;14.27;;;;;;;1.42;100.00;98090.53;5077197;28;20255;-70
2022/11/14 02:39:22;;;;;;;19.97;14.33;;;;;;;1.37;100.00;98097.69;5077136;28;20254;-71
2022/11/14 02:41:50;;;;;;;19.93;13.90;;;;;;;1.33;100.00;98093.47;5077269;28;20262;-71
2022/11/14 02:44:17;;;;;;;21.00;13.93;;;;;;;1.27;100.00;98095.41;5077162;28;20251;-70
2022/11/14 02:46:44;;;;;;;21.23;14.90;;;;;;;1.26;100.00;98075.50;5077042;28;20250;-71
2022/11/14 02:49:11;;;;;;;22.03;15.20;;;;;;;1.28;100.00;98077.16;5075478;28;20254;-71
2022/11/14 02:51:37;;;;;;;23.30;14.77;;;;;;;1.29;100.00;98089.25;5077094;28;20334;-72
2022/11/14 02:54:04;;;;;;;22.63;15.00;;;;;;;1.33;100.00;98085.66;5076950;28;20680;-71
2022/11/14 02:56:32;;;;;;;20.23;14.37;;;;;;;1.28;100.00;98082.34;5077158;28;20322;-71
2022/11/14 02:58:59;;;;;;;25.83;17.00;;;;;;;1.29;100.00;98088.44;5076954;28;20258;-71
2022/11/14 03:01:25;;;;;;;20.63;14.90;;;;;;;1.31;100.00;98090.09;5076965;28;20326;-71
2022/11/14 03:03:52;;;;;;;23.70;15.57;;;;;;;1.27;100.00;98085.88;5076803;28;20251;-71
2022/11/14 03:06:18;;;;;;;23.87;16.00;;;;;;;1.23;100.00;98102.47;5076846;28;20255;-71
2022/11/14 03:08:45;;;;;;;23.57;15.90;;;;;;;1.29;100.00;98099.66;5076837;28;20258;-71
2022/11/14 03:11:12;;;;;;;19.57;14.43;;;;;;;1.29;100.00;98089.25;5076314;28;20533;-71
2022/11/14 03:13:40;;;;;;;23.10;16.57;;;;;;;1.30;100.00;98085.75;5074942;28;20473;-71
2022/11/14 03:16:07;;;;;;;21.33;14.20;;;;;;;1.30;100.00;98088.34;5076806;28;20218;-71
2022/11/14 03:18:34;;;;;;;19.67;13.47;;;;;;;1.30;100.00;98069.28;5076895;28;20219;-71
2022/11/14 03:21:06;;;;;;;21.87;14.37;;;;;;;1.33;100.00;98059.63;5076623;28;20254;-71
2022/11/14 03:23:33;;;;;;;20.87;14.47;;;;;;;1.36;100.00;98059.50;5076757;28;20224;-71
2022/11/14 03:26:00;;;;;;;22.53;15.07;;;;;;;1.37;100.00;98061.25;5076776;28;20301;-71
2022/11/14 03:28:27;;;;;;;21.67;14.20;;;;;;;1.37;100.00;98053.44;5076774;28;20615;-71
2022/11/14 03:30:55;;;;;;;20.70;14.67;;;;;;;1.37;100.00;98048.22;5076774;28;20254;-70
2022/11/14 03:33:22;;;;;;;23.60;14.03;;;;;;;1.45;100.00;98037.50;5076664;28;20238;-71
2022/11/14 03:35:49;;;;;;;24.87;14.90;;;;;;;1.46;100.00;98036.59;5076684;28;20651;-71
2022/11/14 03:38:16;;;;;;;21.53;14.60;;;;;;;1.49;100.00;98036.50;5076677;28;20219;-71
2022/11/14 03:40:43;;;;;;;23.40;15.93;;;;;;;1.60;100.00;98030.00;5074931;28;20255;-71
2022/11/14 03:43:10;;;;;;;22.10;14.60;;;;;;;1.51;100.00;98017.34;5076471;28;20247;-71
2022/11/14 03:45:36;;;;;;;21.30;14.03;;;;;;;1.47;100.00;98023.53;5076663;28;20557;-71
2022/11/14 03:48:05;;;;;;;20.83;14.13;;;;;;;1.40;100.00;98003.84;5076378;28;20639;-71
2022/11/14 03:50:32;;;;;;;21.43;15.30;;;;;;;1.35;100.00;98005.75;5076535;28;20255;-71
2022/11/14 03:52:58;;;;;;;21.67;14.00;;;;;;;1.36;100.00;98015.25;5076320;28;20275;-71
2022/11/14 03:55:25;;;;;;;19.17;13.20;;;;;;;1.28;100.00;98026.84;5076220;28;20604;-71
2022/11/14 03:57:52;;;;;;;18.80;13.10;;;;;;;1.27;100.00;98033.81;5076318;28;20568;-70
2022/11/14 04:00:19;;;;;;;22.17;14.27;;;;;;;1.26;100.00;98032.09;5076320;28;20246;-71
2022/11/14 04:02:46;;;;;;;19.13;13.37;;;;;;;1.25;100.00;98056.44;5076236;28;20621;-71
2022/11/14 04:05:14;;;;;;;21.40;13.53;;;;;;;1.28;100.00;98061.53;5074566;28;20245;-71
2022/11/14 04:07:41;;;;;;;21.87;14.03;;;;;;;1.25;100.00;98071.19;5076360;28;20262;-71
2022/11/14 04:10:08;;;;;;;23.33;14.57;;;;;;;1.23;100.00;98067.81;5076250;28;20250;-71
2022/11/14 04:12:35;;;;;;;21.00;14.80;;;;;;;1.24;100.00;98059.91;5076310;28;20254;-71
2022/11/14 04:15:01;;;;;;;22.13;14.13;;;;;;;1.23;100.00;98060.84;5076015;28;20270;-70
2022/11/14 04:17:28;;;;;;;21.17;14.10;;;;;;;1.21;100.00;98061.78;5076503;28;20261;-70
2022/11/14 04:19:55;;;;;;;23.97;15.10;;;;;;;1.14;100.00;98063.75;5076131;28;20255;-71
2022/11/14 04:22:23;;;;;;;22.43;15.33;;;;;;;1.17;100.00;98062.81;5076533;28;20255;-71
2022/11/14 04:24:50;;;;;;;22.03;14.93;;;;;;;1.20;100.00;98067.91;5079617;28;20259;-71
2022/11/14 04:27:16;;;;;;;20.53;14.07;;;;;;;1.24;100.00;98057.31;5080036;28;20305;-71
2022/11/14 04:29:43;;;;;;;21.13;14.87;;;;;;;1.20;100.00;98047.94;5080267;28;20561;-71
2022/11/14 04:32:09;;;;;;;23.33;14.80;;;;;;;1.22;100.00;98034.88;5079928;28;20266;-71
2022/11/14 04:34:36;;;;;;;19.80;13.77;;;;;;;1.23;100.00;98037.41;5081589;28;20270;-71
2022/11/14 04:37:03;;;;;;;20.17;14.27;;;;;;;1.22;100.00;98040.91;5082055;28;20591;-70
2022/11/14 04:39:31;;;;;;;22.00;14.33;;;;;;;1.24;100.00;98033.06;5079663;28;20251;-70
2022/11/14 04:41:57;;;;;;;23.97;15.27;;;;;;;1.24;100.00;98022.66;5079556;28;20334;-70
2022/11/14 04:44:24;;;;;;;21.03;14.70;;;;;;;1.25;100.00;98014.78;5079398;28;20242;-70
2022/11/14 04:46:50;;;;;;;20.83;14.67;;;;;;;1.26;100.00;98006.06;5079271;28;20250;-70
2022/11/14 04:49:17;;;;;;;25.60;15.67;;;;;;;1.34;100.00;98000.59;5079322;28;20220;-70
2022/11/14 04:51:44;;;;;;;19.93;13.73;;;;;;;1.39;100.00;97996.94;5079232;28;20257;-71
2022/11/14 04:54:10;;;;;;;21.57;14.70;;;;;;;1.35;100.00;98005.75;5079171;28;20270;-71
2022/11/14 04:56:38;;;;;;;20.00;13.40;;;;;;;1.41;100.00;98020.31;5078175;28;20658;-70
2022/11/14 04:59:05;;;;;;;19.57;13.13;;;;;;;1.44;100.00;98020.19;5078928;28;20258;-71
2022/11/14 05:01:31;;;;;;;19.87;14.07;;;;;;;1.45;100.00;98012.34;5078979;28;20303;-71
2022/11/14 05:03:58;;;;;;;18.20;13.13;;;;;;;1.48;100.00;98009.59;5079170;28;20316;-70
2022/11/14 05:06:25;;;;;;;18.13;13.23;;;;;;;1.41;100.00;98005.53;5079209;28;20258;-71
2022/11/14 05:08:51;;;;;;;21.83;13.03;;;;;;;1.41;100.00;97989.91;5078923;28;20254;-70
2022/11/14 05:11:20;;;;;;;17.57;12.23;;;;;;;1.39;100.00;97991.72;5078789;28;20294;-71
2022/11/14 05:13:48;;;;;;;17.50;12.00;;;;;;;1.40;100.00;97998.63;5078911;28;20314;-71
2022/11/14 05:16:14;;;;;;;15.03;11.50;;;;;;;1.38;100.00;97995.25;5078785;28;20282;-70
2022/11/14 05:18:41;;;;;;;16.97;11.70;;;;;;;1.36;100.00;97986.59;5078594;28;20603;-70
2022/11/14 05:21:12;;;;;;;16.67;11.27;;;;;;;1.35;100.00;97984.09;5078545;28;20215;-70
2022/11/14 05:23:39;;;;;;;16.37;12.00;;;;;;;1.32;100.00;97989.38;5076954;28;20302;-71
2022/11/14 05:26:12;;;;;;;14.93;10.93;;;;;;;1.28;100.00;97985.22;5078533;28;20230;-71
2022/11/14 05:28:38;;;;;;;17.63;11.57;;;;;;;1.21;100.00;97984.56;5078459;28;20247;-71
2022/11/14 05:31:08;;;;;;;17.13;11.93;;;;;;;1.26;100.00;97980.03;5078407;28;20664;-72
2022/11/14 05:33:36;;;;;;;17.20;12.03;;;;;;;1.22;100.00;97983.66;5077790;28;20278;-71
2022/11/14 05:36:03;;;;;;;16.17;11.97;;;;;;;1.26;100.00;97980.03;5078280;28;20250;-72
2022/11/14 05:38:30;;;;;;;16.73;11.47;;;;;;;1.25;100.00;97978.34;5078363;28;20567;-70
2022/11/14 05:40:57;;;;;;;17.77;11.90;;;;;;;1.32;100.00;97985.03;5078071;28;20254;-71
2022/11/14 05:43:24;;;;;;;17.20;11.77;;;;;;;1.34;100.00;97985.81;5077876;28;20274;-71
2022/11/14 05:45:50;;;;;;;17.57;11.97;;;;;;;1.35;100.00;97982.31;5078194;28;20265;-71
2022/11/14 05:48:18;;;;;;;18.00;11.63;;;;;;;1.35;100.00;97987.53;5076207;28;20262;-71
2022/11/14 05:50:45;;;;;;;16.40;11.43;;;;;;;1.31;100.00;97978.13;5078016;28;20646;-71
2022/11/14 05:53:11;;;;;;;16.03;11.73;;;;;;;1.31;100.00;97978.13;5078188;28;20285;-71
2022/11/14 05:55:38;;;;;;;15.83;11.37;;;;;;;1.32;100.00;97978.97;5077922;28;20275;-72
2022/11/14 05:58:05;;;;;;;16.07;11.30;;;;;;;1.31;100.00;97972.94;5077967;28;20254;-72
2022/11/14 06:00:31;;;;;;;18.03;12.63;;;;;;;1.28;100.00;97978.22;5077985;28;20250;-71
2022/11/14 06:02:58;;;;;;;15.93;11.20;;;;;;;1.30;100.00;97978.19;5078076;28;20215;-71
2022/11/14 06:05:26;;;;;;;16.50;11.27;;;;;;;1.41;100.00;97986.47;5077780;28;20657;-71
2022/11/14 06:07:56;;;;;;;13.80;10.73;;;;;;;1.42;100.00;97991.59;5077693;28;20587;-71
2022/11/14 06:10:23;;;;;;;15.60;11.17;;;;;;;1.45;100.00;98001.06;5077783;28;20261;-71
2022/11/14 06:12:50;;;;;;;16.83;11.23;;;;;;;1.48;100.00;97994.00;5077745;28;20269;-71
2022/11/14 06:15:17;;;;;;;17.97;12.30;;;;;;;1.52;100.00;98003.41;5075805;28;20292;-71
2022/11/14 06:17:43;;;;;;;16.17;12.27;;;;;;;1.60;100.00;98001.38;5077550;28;20606;-71
2022/11/14 06:20:12;;;;;;;17.43;11.80;;;;;;;1.66;100.00;97992.50;5077709;28;20661;-71
2022/11/14 06:22:40;;;;;;;17.67;11.87;;;;;;;1.75;100.00;97999.97;5077462;28;20614;-71
2022/11/14 06:25:07;;;;;;;15.97;10.63;;;;;;;1.82;100.00;97991.88;5077683;28;20257;-71
2022/11/14 06:27:34;;;;;;;15.53;11.90;;;;;;;1.95;100.00;97987.91;5077306;28;20665;-71
2022/11/14 06:30:00;;;;;;;17.33;11.57;;;;;;;2.07;100.00;97997.00;5077352;28;20277;-71
2022/11/14 06:32:27;;;;;;;17.30;12.37;;;;;;;2.22;100.00;97986.00;5077269;28;20250;-71
2022/11/14 06:34:54;;;;;;;16.43;12.07;;;;;;;2.36;100.00;97986.31;5077070;28;20278;-71
2022/11/14 06:37:20;;;;;;;18.63;12.33;;;;;;;2.47;100.00;97987.59;5077063;28;20308;-70
2022/11/14 06:39:48;;;;;;;18.17;12.63;;;;;;;2.57;100.00;97986.31;5075573;28;20223;-71
2022/11/14 06:42:15;;;;;;;16.50;11.87;;;;;;;2.65;100.00;97986.88;5076972;28;20251;-71
2022/11/14 06:44:42;;;;;;;21.23;13.53;;;;;;;2.71;100.00;97989.25;5076842;28;20266;-71
2022/11/14 06:47:09;;;;;;;18.97;12.77;;;;;;;2.86;100.00;97996.44;5076806;28;20630;-71
2022/11/14 06:49:35;;;;;;;20.97;13.87;;;;;;;3.00;100.00;97991.47;5077068;28;20219;-71
2022/11/14 06:52:02;;;;;;;19.83;13.27;;;;;;;3.08;100.00;97992.03;5077077;28;20255;-70
2022/11/14 06:54:28;;;;;;;22.30;13.03;;;;;;;3.14;100.00;97990.91;5077090;28;20271;-71
2022/11/14 06:56:56;;;;;;;21.77;13.30;;;;;;;3.16;100.00;97989.94;5077157;28;20277;-71
2022/11/14 06:59:23;;;;;;;18.20;12.23;;;;;;;3.22;100.00;97989.69;5077033;28;20266;-70
2022/11/14 07:01:50;;;;;;;16.00;12.83;;;;;;;3.20;100.00;97991.53;5077035;28;20581;-70
2022/11/14 07:04:16;;;;;;;17.67;11.57;;;;;;;3.13;100.00;97990.06;5076929;28;20258;-70
2022/11/14 07:06:43;;;;;;;16.33;11.77;;;;;;;3.05;100.00;97980.88;5075229;28;20547;-71
2022/11/14 07:09:10;;;;;;;15.33;11.30;;;;;;;2.97;100.00;97983.78;5076863;28;20255;-71
2022/11/14 07:11:37;;;;;;;16.77;11.67;;;;;;;2.87;100.00;97989.47;5076848;28;20251;-70
2022/11/14 07:14:05;;;;;;;15.63;12.40;;;;;;;2.79;100.00;97983.69;5076692;28;20318;-70
2022/11/14 07:16:34;;;;;;;13.90;9.70;;;;;;;2.75;100.00;97982.97;5077010;28;20215;-71
2022/11/14 07:19:02;;;;;;;15.27;11.00;;;;;;;2.77;100.00;97991.59;5076916;28;20211;-71
2022/11/14 07:21:30;;;;;;;16.40;11.50;;;;;;;2.84;100.00;97993.03;5076934;28;20219;-71
2022/11/14 07:23:57;;;;;;;17.70;11.70;;;;;;;2.94;100.00;97989.13;5076732;28;20258;-71
2022/11/14 07:26:25;;;;;;;18.40;11.53;;;;;;;3.08;100.00;97997.25;5076675;28;20255;-71
2022/11/14 07:28:51;;;;;;;15.60;11.90;;;;;;;3.22;100.00;97988.81;5076677;28;20247;-71
2022/11/14 07:31:20;;;;;;;18.00;11.93;;;;;;;3.31;100.00;97983.22;5075209;28;20260;-71
2022/11/14 07:33:47;;;;;;;17.17;11.67;;;;;;;3.36;100.00;97996.94;5076475;28;20255;-71
2022/11/14 07:36:15;;;;;;;15.93;11.60;;;;;;;3.32;100.00;97990.13;5076560;28;20661;-72
2022/11/14 07:38:42;;;;;;;15.90;10.87;;;;;;;3.32;100.00;97995.34;5076563;28;20262;-72
2022/11/14 07:41:11;;;;;;;15.17;11.20;;;;;;;3.25;100.00;97992.16;5076603;28;20303;-71
2022/11/14 07:43:38;;;;;;;14.73;10.63;;;;;;;3.19;100.00;97992.41;5076479;28;20273;-71
2022/11/14 07:46:06;;;;;;;15.77;11.00;;;;;;;3.10;100.00;97987.59;5076551;28;20254;-71
2022/11/14 07:48:34;;;;;;;14.00;10.93;;;;;;;3.07;100.00;98000.75;5076574;28;20241;-71
2022/11/14 07:51:02;;;;;;;14.93;10.80;;;;;;;3.07;100.00;98013.81;5076490;28;20368;-71
2022/11/14 07:53:29;;;;;;;17.30;11.93;;;;;;;3.20;100.00;98020.25;5076717;28;20257;-71
2022/11/14 07:55:56;;;;;;;17.83;11.60;;;;;;;3.29;100.00;98027.69;5076204;28;20697;-71
2022/11/14 07:58:24;;;;;;;19.37;12.77;;;;;;;3.35;100.00;98024.81;5078366;28;20646;-71
2022/11/14 08:00:50;;;;;;;16.90;11.90;;;;;;;3.40;100.00;98033.31;5080235;28;20265;-71
2022/11/14 08:03:17;;;;;;;19.40;12.60;;;;;;;3.47;100.00;98026.03;5080138;28;20269;-71
2022/11/14 08:05:45;;;;;;;19.07;12.50;;;;;;;3.58;100.00;98029.03;5080255;28;20294;-70
2022/11/14 08:08:11;;;;;;;20.83;12.60;;;;;;;3.67;100.00;98032.09;5080170;28;20544;-70
2022/11/14 08:10:38;;;;;;;21.00;14.37;;;;;;;3.78;100.00;98036.88;5080015;28;20298;-70
2022/11/14 08:13:07;;;;;;;23.57;14.57;;;;;;;3.91;100.00;98035.44;5080004;28;20251;-72
2022/11/14 08:15:33;;;;;;;21.23;14.13;;;;;;;3.99;100.00;98042.03;5079934;28;20315;-72
2022/11/14 08:18:01;;;;;;;23.77;14.33;;;;;;;4.14;100.00;98036.09;5079807;28;20228;-71
2022/11/14 08:20:28;;;;;;;22.37;14.23;;;;;;;4.24;100.00;98042.59;5080021;28;20266;-71
2022/11/14 08:23:02;;;;;;;18.77;13.83;;;;;;;4.23;100.00;98040.88;5077941;28;20250;-71
2022/11/14 08:25:28;;;;;;;18.67;13.33;;;;;;;4.27;100.00;98045.06;5080499;28;20572;-71
2022/11/14 08:27:55;;;;;;;21.23;14.27;;;;;;;4.32;100.00;98044.84;5079759;28;20256;-71
2022/11/14 08:30:22;;;;;;;19.67;13.87;;;;;;;4.31;100.00;98037.94;5079679;28;20332;-71
2022/11/14 08:32:48;;;;;;;20.50;14.00;;;;;;;4.33;100.00;98057.88;5079570;28;20255;-71
2022/11/14 08:35:15;;;;;;;23.83;14.37;;;;;;;4.36;100.00;98062.97;5079478;28;20271;-71
2022/11/14 08:37:42;;;;;;;21.93;14.30;;;;;;;4.34;100.00;98058.72;5079507;28;20634;-67
2022/11/14 08:40:11;;;;;;;22.10;13.90;;;;;;;4.26;100.00;98046.00;5079591;28;20299;-68
2022/11/14 08:42:38;;;;;;;24.77;14.80;;;;;;;4.29;100.00;98045.84;5079528;28;20220;-68
2022/11/14 08:45:06;;;;;;;22.37;14.40;;;;;;;4.37;100.00;98054.19;5079455;28;20245;-68
2022/11/14 08:47:32;;;;;;;22.53;14.73;;;;;;;4.44;100.00;98068.69;5079369;28;20212;-69
2022/11/14 08:49:59;;;;;;;23.67;15.53;;;;;;;4.44;100.00;98053.00;5077690;28;20254;-68
2022/11/14 08:52:26;;;;;;;22.03;15.67;;;;;;;4.48;100.00;98045.84;5079486;28;20255;-70
2022/11/14 08:54:52;;;;;;;22.90;15.67;;;;;;;4.56;100.00;98044.59;5079366;28;20278;-70
2022/11/14 08:57:20;;;;;;;25.00;14.83;;;;;;;4.67;100.00;98031.84;5079413;28;20586;-70
2022/11/14 08:59:47;;;;;;;14.93;10.37;;;;;;;4.91;100.00;98035.91;5079166;28;20251;-69
2022/11/14 09:02:14;;;;;;;25.33;15.07;;;;;;;5.23;100.00;98039.56;5079268;28;20261;-68
2022/11/14 09:04:40;;;;;;;22.97;15.60;;;;;;;5.27;100.00;98034.09;5079155;28;20258;-70
2022/11/14 09:07:08;;;;;;;21.47;14.20;;;;;;;5.33;100.00;98032.94;5077709;28;20252;-69
2022/11/14 09:09:34;;;;;;;24.97;14.97;;;;;;;5.40;100.00;98023.84;5075365;28;20256;-70
2022/11/14 09:12:01;;;;;;;21.37;12.80;;;;;;;5.54;100.00;98031.84;5077895;28;20313;-68
2022/11/14 09:14:29;;;;;;;18.33;12.07;;;;;;;5.70;100.00;98038.88;5076607;28;20258;-68
2022/11/14 09:16:55;;;;;;;13.80;9.50;;;;;;;5.87;100.00;98036.25;5076841;28;20300;-72
2022/11/14 09:19:22;;;;;;;15.20;9.97;;;;;;;6.09;100.00;98030.72;5078911;28;20247;-70
2022/11/14 09:21:48;;;;;;;15.37;9.67;;;;;;;6.22;100.00;98043.13;5078992;28;20617;-71
2022/11/14 09:24:15;;;;;;;10.97;7.60;;;;;;;6.40;100.00;98026.38;5078747;28;20256;-70
2022/11/14 09:26:42;;;;;;;15.30;9.20;;;;;;;6.51;100.00;98023.16;5078801;28;20296;-71
2022/11/14 09:29:08;;;;;;;14.13;8.57;;;;;;;6.65;100.00;98010.97;5078638;28;20257;-71
2022/11/14 09:31:36;;;;;;;14.87;9.50;;;;;;;6.70;100.00;98014.19;5078521;28;20256;-71
2022/11/14 09:34:03;;;;;;;12.75;10.32;;;;;;;6.70;100.00;98010.72;5077302;28;20485;-71
2022/11/14 09:36:29;;;;;;;10.97;8.30;;;;;;;6.72;100.00;98014.94;5078361;28;20270;-71
2022/11/14 09:38:56;;;;;;;10.50;8.07;;;;;;;6.72;100.00;98006.25;5078626;28;20253;-70
2022/11/14 09:41:25;;;;;;;11.50;7.63;;;;;;;6.75;100.00;98012.16;5076715;28;20622;-68
2022/11/14 09:44:19;;;;;;;10.63;7.73;;;;;;;6.82;100.00;98007.41;5078228;28;20219;-68
2022/11/14 09:46:50;;;;;;;9.63;7.17;;;;;;;6.88;100.00;98013.16;5078259;28;20251;-70
2022/11/14 09:49:27;;;;;;;10.77;7.70;;;;;;;6.99;100.00;98009.94;5078137;28;20250;-71
2022/11/14 09:52:01;;;;;;;9.93;7.97;;;;;;;7.07;100.00;98005.06;5078163;28;20532;-71
2022/11/14 09:54:35;;;;;;;12.27;6.93;;;;;;;7.19;100.00;97992.09;5078280;28;20516;-71
2022/11/14 09:57:02;;;;;;;9.27;6.80;;;;;;;7.24;100.00;97988.25;5078527;28;20281;-69
2022/11/14 09:59:29;;;;;;;9.90;6.87;;;;;;;7.30;100.00;97989.69;5078018;28;20257;-70
2022/11/14 10:02:05;;;;;;;9.00;6.70;;;;;;;7.30;100.00;97989.69;5078011;28;20256;-70
2022/11/14 10:04:48;;;;;;;8.60;6.80;;;;;;;7.34;100.00;97983.31;5077890;28;20265;-69
2022/11/14 10:07:27;;;;;;;9.43;6.90;;;;;;;7.43;100.00;97978.38;5076232;28;20258;-70
2022/11/14 10:10:03;;;;;;;11.47;7.10;;;;;;;7.55;100.00;97985.53;5077795;28;20268;-69
2022/11/14 10:12:41;;;;;;;10.10;7.47;;;;;;;7.66;100.00;97971.72;5077772;28;20254;-68
2022/11/14 10:15:25;;;;;;;8.53;7.03;;;;;;;7.76;100.00;97972.84;5077783;28;20280;-69
2022/11/14 10:18:12;;;;;;;12.67;8.20;;;;;;;7.84;100.00;97975.88;5077674;28;20262;-68
2022/11/14 10:20:44;;;;;;;9.47;7.47;;;;;;;7.91;100.00;97970.13;5077742;28;20296;-68
2022/11/14 10:23:25;;;;;;;9.57;7.33;;;;;;;7.99;100.00;97960.00;5077492;28;20245;-66
2022/11/14 10:26:00;;;;;;;12.07;8.93;;;;;;;8.08;100.00;97963.84;5077557;28;20258;-66
2022/11/14 10:28:40;;;;;;;12.70;8.77;;;;;;;8.21;100.00;97962.19;5077569;28;20297;-65
2022/11/14 10:31:16;;;;;;;11.87;8.60;;;;;;;8.30;100.00;97956.31;5077743;28;20219;-67
2022/11/14 10:33:53;;;;;;;11.27;8.50;;;;;;;8.29;100.00;97959.91;5075674;28;20301;-67
2022/11/14 10:36:33;;;;;;;14.27;10.60;;;;;;;8.42;100.00;97959.03;5077276;28;20266;-67
2022/11/14 10:39:09;;;;;;;15.23;10.67;;;;;;;8.59;100.00;97956.19;5077429;28;20229;-67
2022/11/14 10:41:37;;;;;;;13.80;10.50;;;;;;;8.85;100.00;97957.13;5077345;28;20254;-67
2022/11/14 10:44:08;;;;;;;14.23;10.73;;;;;;;8.91;100.00;97956.72;5077235;28;20251;-68
2022/11/14 10:46:39;;;;;;;12.57;8.90;;;;;;;8.94;100.00;97953.91;5077152;28;20638;-67
2022/11/14 10:49:16;;;;;;;11.10;8.60;;;;;;;8.78;100.00;97964.59;5077183;28;20590;-68
2022/11/14 10:51:46;;;;;;;10.53;8.23;;;;;;;8.78;100.00;97958.47;5077143;28;20219;-69
2022/11/14 10:54:18;;;;;;;11.87;8.23;;;;;;;8.71;100.00;97965.09;5077220;28;20283;-67
2022/11/14 10:56:49;;;;;;;10.33;8.10;;;;;;;8.74;100.00;97975.41;5077174;28;20654;-68
2022/11/14 10:59:17;;;;;;;10.77;8.13;;;;;;;8.77;100.00;97964.69;5075375;28;20249;-68
2022/11/14 11:01:53;;;;;;;11.33;8.07;;;;;;;8.73;100.00;97965.81;5077104;28;20250;-68
2022/11/14 11:04:25;;;;;;;8.90;7.20;;;;;;;8.68;100.00;97965.25;5076900;28;20222;-69
2022/11/14 11:06:54;;;;;;;10.17;7.40;;;;;;;8.77;100.00;97964.69;5076965;28;20242;-68
2022/11/14 11:12:09;;;;;;;10.13;6.67;;;;;;;8.87;100.00;97949.97;5077044;28;20202;-68
2022/11/14 11:14:36;;;;;;;11.73;7.20;;;;;;;8.96;100.00;97954.63;5077208;28;20227;-69
2022/11/14 11:17:24;;;;;;;10.60;7.73;;;;;;;9.05;100.00;97940.88;5076800;28;20236;-69
2022/11/14 11:19:52;;;;;;;11.90;8.77;;;;;;;9.28;100.00;97934.88;5071889;28;20266;-69
2022/11/14 11:22:28;;;;;;;10.33;8.50;;;;;;;9.51;100.00;97936.81;5076854;28;20246;-69
2022/11/14 11:24:56;;;;;;;9.17;7.17;;;;;;;9.62;100.00;97923.75;5075251;28;20216;-69
2022/11/14 11:27:24;;;;;;;9.03;7.17;;;;;;;9.61;100.00;97932.63;5076872;28;20275;-69